createdAt,value
2022-12-25T00:01:32.034Z,239.25
2022-12-25T00:03:35.607Z,247.48
2022-12-25T00:05:39.577Z,245.27
2022-12-25T00:07:42.908Z,240.02
2022-12-25T00:09:46.513Z,234.82
2022-12-25T00:11:49.862Z,240.50
2022-12-25T00:13:53.179Z,244.93
2022-12-25T00:15:57.124Z,242.05
2022-12-25T00:18:01.816Z,244.93
2022-12-25T00:20:06.111Z,250.90
2022-12-25T00:22:09.650Z,250.50
2022-12-25T00:24:12.919Z,243.95
2022-12-25T00:26:18.523Z,244.20
2022-12-25T00:28:23.752Z,236.45
2022-12-25T00:30:27.194Z,253.40
2022-12-25T00:32:30.556Z,243.52
2022-12-25T00:34:35.588Z,256.30
2022-12-25T00:36:41.941Z,251.15
2022-12-25T00:38:46.468Z,249.57
2022-12-25T00:40:49.815Z,250.98
2022-12-25T00:42:53.123Z,245.35
2022-12-25T00:44:56.729Z,243.90
2022-12-25T00:47:00.252Z,245.15
2022-12-25T00:49:04.285Z,241.88
2022-12-25T00:51:12.431Z,252.95
2022-12-25T00:53:15.767Z,232.50
2022-12-25T00:55:19.140Z,242.40
2022-12-25T00:57:22.478Z,252.30
2022-12-25T00:59:25.882Z,260.50
2022-12-25T01:01:29.482Z,252.77
2022-12-25T01:03:33.077Z,248.75
2022-12-25T01:05:36.475Z,263.27
2022-12-25T01:07:41.158Z,244.68
2022-12-25T01:10:02.663Z,250.30
2022-12-25T01:12:06.246Z,251.68
2022-12-25T01:14:09.677Z,246.15
2022-12-25T01:16:13.002Z,263.23
2022-12-25T01:18:16.316Z,247.77
2022-12-25T01:20:19.786Z,246.95
2022-12-25T01:22:23.097Z,256.40
2022-12-25T01:24:27.839Z,245.77
2022-12-25T01:26:31.348Z,248.20
2022-12-25T01:28:34.923Z,249.07
2022-12-25T01:30:38.472Z,235.60
2022-12-25T01:32:41.824Z,241.32
2022-12-25T01:34:48.143Z,241.48
2022-12-25T01:36:53.914Z,250.85
2022-12-25T01:38:57.375Z,241.60
2022-12-25T01:41:02.109Z,242.25
2022-12-25T01:43:05.547Z,238.57
2022-12-25T01:45:32.875Z,244.65
2022-12-25T01:47:36.562Z,233.57
2022-12-25T01:49:42.028Z,245.85
2022-12-25T01:51:49.188Z,251.07
2022-12-25T01:53:52.566Z,252.98
2022-12-25T01:56:02.518Z,243.82
2022-12-25T01:58:07.432Z,261.88
2022-12-25T02:00:12.919Z,244.77
2022-12-25T02:02:16.891Z,245.07
2022-12-25T02:04:38.440Z,252.05
2022-12-25T02:06:42.821Z,242.65
2022-12-25T02:08:46.319Z,240.70
2022-12-25T02:10:49.957Z,255.40
2022-12-25T02:12:54.059Z,240.15
2022-12-25T02:15:06.102Z,247.93
2022-12-25T02:17:19.112Z,245.70
2022-12-25T02:19:39.095Z,242.40
2022-12-25T02:22:01.492Z,238.35
2022-12-25T02:24:22.829Z,247.45
2022-12-25T02:26:54.297Z,262.00
2022-12-25T02:29:04.496Z,235.45
2022-12-25T02:31:13.199Z,248.52
2022-12-25T02:33:41.101Z,260.13
2022-12-25T02:35:48.624Z,254.20
2022-12-25T02:37:57.684Z,274.55
2022-12-25T02:40:06.758Z,254.98
2022-12-25T02:42:15.163Z,255.77
2022-12-25T02:44:41.427Z,239.90
2022-12-25T02:47:03.401Z,237.82
2022-12-25T02:49:27.991Z,258.05
2022-12-25T02:51:54.672Z,269.25
2022-12-25T02:54:17.927Z,237.98
2022-12-25T02:56:41.456Z,248.77
2022-12-25T02:59:04.687Z,254.02
2022-12-25T03:01:32.040Z,251.00
2022-12-25T03:03:58.398Z,252.40
2022-12-25T03:06:23.351Z,250.88
2022-12-25T03:08:34.992Z,264.50
2022-12-25T03:10:59.827Z,276.08
2022-12-25T03:13:07.591Z,242.88
2022-12-25T03:15:30.627Z,268.33
2022-12-25T03:17:36.249Z,238.52
2022-12-25T03:19:57.200Z,272.95
2022-12-25T03:22:17.916Z,262.52
2022-12-25T03:24:38.740Z,254.73
2022-12-25T03:26:57.432Z,252.25
2022-12-25T03:29:00.854Z,254.13
2022-12-25T03:31:12.500Z,243.57
2022-12-25T03:33:44.326Z,263.75
2022-12-25T03:36:02.785Z,248.30
2022-12-25T03:38:37.676Z,279.27
2022-12-25T03:41:10.311Z,274.63
2022-12-25T03:43:52.563Z,256.85
2022-12-25T03:46:17.270Z,262.65
2022-12-25T03:48:41.470Z,241.90
2022-12-25T03:51:06.326Z,251.52
2022-12-25T03:53:35.165Z,254.13
2022-12-25T03:55:54.429Z,253.82
2022-12-25T03:58:15.253Z,267.20
2022-12-25T04:00:36.533Z,240.00
2022-12-25T04:02:57.755Z,267.77
2022-12-25T04:05:20.274Z,254.15
2022-12-25T04:07:40.995Z,244.07
2022-12-25T04:10:02.267Z,266.52
2022-12-25T04:12:23.900Z,256.42
2022-12-25T04:14:44.653Z,235.90
2022-12-25T04:17:05.458Z,254.77
2022-12-25T04:19:27.865Z,243.43
2022-12-25T04:21:50.098Z,256.70
2022-12-25T04:24:10.846Z,246.68
2022-12-25T04:26:32.491Z,256.08
2022-12-25T04:28:54.470Z,235.68
2022-12-25T04:31:19.337Z,253.05
2022-12-25T04:33:40.509Z,244.20
2022-12-25T04:36:05.349Z,257.58
2022-12-25T04:38:10.125Z,263.42
2022-12-25T04:40:13.773Z,253.77
2022-12-25T04:42:17.320Z,257.58
2022-12-25T04:44:20.706Z,263.65
2022-12-25T04:46:24.056Z,261.63
2022-12-25T04:48:28.681Z,253.68
2022-12-25T04:50:31.988Z,260.15
2022-12-25T04:52:36.441Z,250.85
2022-12-25T04:54:41.367Z,252.23
2022-12-25T04:56:45.927Z,252.30
2022-12-25T04:58:49.945Z,256.98
2022-12-25T05:00:53.306Z,256.65
2022-12-25T05:02:56.879Z,269.25
2022-12-25T05:05:00.386Z,251.38
2022-12-25T05:07:03.954Z,256.83
2022-12-25T05:09:07.692Z,259.20
2022-12-25T05:11:15.221Z,241.65
2022-12-25T05:13:18.776Z,282.48
2022-12-25T05:15:22.283Z,256.70
2022-12-25T05:17:25.735Z,259.98
2022-12-25T05:19:29.163Z,250.23
2022-12-25T05:21:32.533Z,260.38
2022-12-25T05:23:35.865Z,262.67
2022-12-25T05:25:40.721Z,264.13
2022-12-25T05:27:48.786Z,254.07
2022-12-25T05:29:57.027Z,253.25
2022-12-25T05:32:00.540Z,281.02
2022-12-25T05:34:04.589Z,258.27
2022-12-25T05:36:10.611Z,259.02
2022-12-25T05:38:13.997Z,258.77
2022-12-25T05:40:17.624Z,274.30
2022-12-25T05:42:21.136Z,257.45
2022-12-25T05:44:25.892Z,262.70
2022-12-25T05:46:29.429Z,263.25
2022-12-25T05:48:33.197Z,257.38
2022-12-25T05:50:38.601Z,255.02
2022-12-25T05:52:42.192Z,245.07
2022-12-25T05:54:46.753Z,249.55
2022-12-25T05:56:50.221Z,257.88
2022-12-25T05:58:53.600Z,249.55
2022-12-25T06:00:58.294Z,266.65
2022-12-25T06:03:01.799Z,248.57
2022-12-25T06:05:05.893Z,259.15
2022-12-25T06:07:09.388Z,247.70
2022-12-25T06:09:14.141Z,261.35
2022-12-25T06:11:17.686Z,267.88
2022-12-25T06:13:21.065Z,261.27
2022-12-25T06:15:24.494Z,250.88
2022-12-25T06:17:29.179Z,257.10
2022-12-25T06:19:32.468Z,268.88
2022-12-25T06:21:36.020Z,262.50
2022-12-25T06:23:40.234Z,262.80
2022-12-25T06:25:43.702Z,251.85
2022-12-25T06:27:47.086Z,260.48
2022-12-25T06:29:50.502Z,260.35
2022-12-25T06:31:57.217Z,270.17
2022-12-25T06:34:02.105Z,252.88
2022-12-25T06:36:07.492Z,256.80
2022-12-25T06:38:10.814Z,251.63
2022-12-25T06:40:14.703Z,249.13
2022-12-25T06:42:18.207Z,240.32
2022-12-25T06:44:22.317Z,262.63
2022-12-25T06:46:27.738Z,251.57
2022-12-25T06:48:35.181Z,240.55
2022-12-25T06:50:43.482Z,255.02
2022-12-25T06:52:47.127Z,253.30
2022-12-25T06:54:50.444Z,244.07
2022-12-25T06:56:53.776Z,246.07
2022-12-25T06:58:59.271Z,245.98
2022-12-25T07:01:15.485Z,248.50
2022-12-25T07:03:22.544Z,246.15
2022-12-25T07:05:25.900Z,246.38
2022-12-25T07:07:30.617Z,240.73
2022-12-25T07:09:34.370Z,242.32
2022-12-25T07:11:37.951Z,253.50
2022-12-25T07:13:41.690Z,256.17
2022-12-25T07:15:45.009Z,267.20
2022-12-25T07:17:48.583Z,252.65
2022-12-25T07:19:52.452Z,270.10
2022-12-25T07:21:55.849Z,253.45
2022-12-25T07:24:00.520Z,258.17
2022-12-25T07:26:04.431Z,255.05
2022-12-25T07:28:07.745Z,275.38
2022-12-25T07:30:12.247Z,246.45
2022-12-25T07:32:15.713Z,237.38
2022-12-25T07:34:19.692Z,257.02
2022-12-25T07:36:23.185Z,255.10
2022-12-25T07:38:26.946Z,240.48
2022-12-25T07:40:31.836Z,259.67
2022-12-25T07:42:35.232Z,266.30
2022-12-25T07:44:38.670Z,252.27
2022-12-25T07:46:42.121Z,258.58
2022-12-25T07:48:45.706Z,253.20
2022-12-25T07:50:49.000Z,267.85
2022-12-25T07:52:52.270Z,259.42
2022-12-25T07:54:55.707Z,253.75
2022-12-25T07:57:01.972Z,257.58
2022-12-25T07:59:05.552Z,257.00
2022-12-25T08:01:11.524Z,257.98
2022-12-25T08:03:16.918Z,247.05
2022-12-25T08:05:20.397Z,255.50
2022-12-25T08:07:24.637Z,265.30
2022-12-25T08:09:28.015Z,262.42
2022-12-25T08:11:31.379Z,245.48
2022-12-25T08:13:36.990Z,246.88
2022-12-25T08:15:40.875Z,252.73
2022-12-25T08:17:44.177Z,246.18
2022-12-25T08:19:47.569Z,251.95
2022-12-25T08:21:50.940Z,249.95
2022-12-25T08:23:54.399Z,254.00
2022-12-25T08:26:04.622Z,262.85
2022-12-25T08:28:09.110Z,256.60
2022-12-25T08:30:14.606Z,249.32
2022-12-25T08:32:18.167Z,267.33
2022-12-25T08:34:21.932Z,270.65
2022-12-25T08:36:25.983Z,238.90
2022-12-25T08:38:29.510Z,246.77
2022-12-25T08:40:33.436Z,256.60
2022-12-25T08:42:36.857Z,262.35
2022-12-25T08:44:40.378Z,262.92
2022-12-25T08:46:45.203Z,255.82
2022-12-25T08:48:50.257Z,250.55
2022-12-25T08:50:54.509Z,243.30
2022-12-25T08:52:57.871Z,254.13
2022-12-25T08:55:01.301Z,253.45
2022-12-25T08:57:05.046Z,256.55
2022-12-25T08:59:08.426Z,251.35
2022-12-25T09:01:12.843Z,265.58
2022-12-25T09:03:18.012Z,244.38
2022-12-25T09:05:21.485Z,252.13
2022-12-25T09:07:24.849Z,238.35
2022-12-25T09:09:28.643Z,245.90
2022-12-25T09:11:32.027Z,250.93
2022-12-25T09:13:35.771Z,249.65
2022-12-25T09:15:39.555Z,249.30
2022-12-25T09:17:42.967Z,250.48
2022-12-25T09:19:47.783Z,268.55
2022-12-25T09:21:51.080Z,249.48
2022-12-25T09:23:54.507Z,261.13
2022-12-25T09:25:59.990Z,254.57
2022-12-25T09:28:03.347Z,247.77
2022-12-25T09:30:08.106Z,265.10
2022-12-25T09:32:11.565Z,265.55
2022-12-25T09:34:18.766Z,252.90
2022-12-25T09:36:23.871Z,271.75
2022-12-25T09:38:27.969Z,253.40
2022-12-25T09:40:33.272Z,246.75
2022-12-25T09:42:36.858Z,249.88
2022-12-25T09:44:45.856Z,262.73
2022-12-25T09:46:54.997Z,230.60
2022-12-25T09:49:04.218Z,252.35
2022-12-25T09:51:11.322Z,259.33
2022-12-25T09:53:20.557Z,265.15
2022-12-25T09:55:26.547Z,251.82
2022-12-25T09:57:30.039Z,251.80
2022-12-25T09:59:33.405Z,263.73
2022-12-25T10:01:42.239Z,260.60
2022-12-25T10:04:11.296Z,242.90
2022-12-25T10:06:20.212Z,248.52
2022-12-25T10:08:38.806Z,230.55
2022-12-25T10:10:52.282Z,232.35
2022-12-25T10:13:08.330Z,224.65
2022-12-25T10:15:27.441Z,224.88
2022-12-25T10:17:41.472Z,250.15
2022-12-25T10:19:53.671Z,242.57
2022-12-25T10:22:02.380Z,251.45
2022-12-25T10:24:19.756Z,233.25
2022-12-25T10:26:25.399Z,263.02
2022-12-25T10:28:35.948Z,266.60
2022-12-25T10:30:42.059Z,264.83
2022-12-25T10:32:47.604Z,253.63
2022-12-25T10:34:51.433Z,244.75
2022-12-25T10:36:54.837Z,235.40
2022-12-25T10:38:58.718Z,255.13
2022-12-25T10:41:19.011Z,256.15
2022-12-25T10:43:26.563Z,237.77
2022-12-25T10:45:29.953Z,220.50
2022-12-25T10:47:37.917Z,205.68
2022-12-25T10:49:41.501Z,230.68
2022-12-25T10:51:45.159Z,259.23
2022-12-25T10:53:48.509Z,238.75
2022-12-25T10:55:59.789Z,223.60
2022-12-25T10:58:04.515Z,247.15
2022-12-25T11:00:21.584Z,244.27
2022-12-25T11:02:28.658Z,235.15
2022-12-25T11:04:36.756Z,247.18
2022-12-25T11:06:40.143Z,242.38
2022-12-25T11:08:43.465Z,239.15
2022-12-25T11:10:54.534Z,239.50
2022-12-25T11:12:58.615Z,240.45
2022-12-25T11:15:25.372Z,247.80
2022-12-25T11:17:29.398Z,228.23
2022-12-25T11:19:33.747Z,234.15
2022-12-25T11:21:38.380Z,251.65
2022-12-25T11:23:47.366Z,227.57
2022-12-25T11:25:58.872Z,242.98
2022-12-25T11:28:04.107Z,222.98
2022-12-25T11:30:16.367Z,215.10
2022-12-25T11:32:23.504Z,221.77
2022-12-25T11:34:32.341Z,217.00
2022-12-25T11:36:45.352Z,231.65
2022-12-25T11:38:48.879Z,231.80
2022-12-25T11:40:54.704Z,221.73
2022-12-25T11:43:08.207Z,228.48
2022-12-25T11:45:17.813Z,218.75
2022-12-25T11:47:27.016Z,224.57
2022-12-25T11:49:31.954Z,222.52
2022-12-25T11:51:39.937Z,238.75
2022-12-25T11:53:49.603Z,235.20
2022-12-25T11:55:57.855Z,231.07
2022-12-25T11:58:07.342Z,234.65
2022-12-25T12:00:16.610Z,223.88
2022-12-25T12:02:28.445Z,229.95
2022-12-25T12:04:42.556Z,239.65
2022-12-25T12:06:51.960Z,222.60
2022-12-25T12:09:06.397Z,205.23
2022-12-25T12:11:19.224Z,220.23
2022-12-25T12:13:36.535Z,249.50
2022-12-25T12:15:44.885Z,238.23
2022-12-25T12:17:48.371Z,242.98
2022-12-25T12:19:52.571Z,240.07
2022-12-25T12:21:58.040Z,235.00
2022-12-25T12:24:06.440Z,256.13
2022-12-25T12:26:19.897Z,234.45
2022-12-25T12:28:27.190Z,242.13
2022-12-25T12:30:32.447Z,242.88
2022-12-25T12:32:41.780Z,251.30
2022-12-25T12:34:50.506Z,247.38
2022-12-25T12:37:01.619Z,250.88
2022-12-25T12:39:06.253Z,239.68
2022-12-25T12:41:12.085Z,233.13
2022-12-25T12:43:29.357Z,232.50
2022-12-25T12:45:35.760Z,242.45
2022-12-25T12:47:43.268Z,268.45
2022-12-25T12:50:01.869Z,244.50
2022-12-25T12:52:08.386Z,237.85
2022-12-25T12:54:20.582Z,242.35
2022-12-25T12:56:25.390Z,233.57
2022-12-25T12:58:33.545Z,245.60
2022-12-25T13:00:47.642Z,257.25
2022-12-25T13:03:27.674Z,238.35
2022-12-25T13:05:39.054Z,233.63
2022-12-25T13:07:54.455Z,233.90
2022-12-25T13:10:07.745Z,231.07
2022-12-25T13:12:14.987Z,236.98
2022-12-25T13:14:21.634Z,229.80
2022-12-25T13:16:28.355Z,239.23
2022-12-25T13:18:34.917Z,249.88
2022-12-25T13:20:45.854Z,248.00
2022-12-25T13:22:52.893Z,262.33
2022-12-25T13:24:57.944Z,245.20
2022-12-25T13:27:01.995Z,233.73
2022-12-25T13:29:11.338Z,253.40
2022-12-25T13:31:19.610Z,261.23
2022-12-25T13:33:23.308Z,244.02
2022-12-25T13:35:28.687Z,242.38
2022-12-25T13:37:32.752Z,258.75
2022-12-25T13:39:37.879Z,272.60
2022-12-25T13:42:01.365Z,265.55
2022-12-25T13:44:07.749Z,252.50
2022-12-25T13:46:14.078Z,259.90
2022-12-25T13:48:20.128Z,237.05
2022-12-25T13:50:27.060Z,258.00
2022-12-25T13:52:37.407Z,259.77
2022-12-25T13:54:41.501Z,247.23
2022-12-25T13:56:49.385Z,251.10
2022-12-25T13:58:53.020Z,234.20
2022-12-25T14:00:58.635Z,251.38
2022-12-25T14:03:02.641Z,222.60
2022-12-25T14:05:24.141Z,221.77
2022-12-25T14:07:28.554Z,236.93
2022-12-25T14:09:33.862Z,253.90
2022-12-25T14:11:37.480Z,262.30
2022-12-25T14:13:43.873Z,253.55
2022-12-25T14:15:48.263Z,267.58
2022-12-25T14:17:53.110Z,267.17
2022-12-25T14:20:07.800Z,268.35
2022-12-25T14:22:19.019Z,249.73
2022-12-25T14:24:25.725Z,258.23
2022-12-25T14:26:32.536Z,251.52
2022-12-25T14:28:37.715Z,250.13
2022-12-25T14:30:43.454Z,251.50
2022-12-25T14:32:51.920Z,254.32
2022-12-25T14:34:57.889Z,242.77
2022-12-25T14:37:02.566Z,257.55
2022-12-25T14:39:08.189Z,251.23
2022-12-25T14:41:33.473Z,251.70
2022-12-25T14:43:40.392Z,246.38
2022-12-25T14:45:43.770Z,258.75
2022-12-25T14:47:52.760Z,256.63
2022-12-25T14:49:56.730Z,258.23
2022-12-25T14:52:00.307Z,278.60
2022-12-25T14:54:15.277Z,265.70
2022-12-25T14:56:21.260Z,266.92
2022-12-25T14:58:28.630Z,259.90
2022-12-25T15:00:35.766Z,256.45
2022-12-25T15:02:46.686Z,273.55
2022-12-25T15:04:50.419Z,282.60
2022-12-25T15:06:56.551Z,260.90
2022-12-25T15:09:01.608Z,270.17
2022-12-25T15:11:05.403Z,263.17
2022-12-25T15:13:09.229Z,269.50
2022-12-25T15:15:12.621Z,250.05
2022-12-25T15:17:25.354Z,268.83
2022-12-25T15:19:37.375Z,266.27
2022-12-25T15:21:44.364Z,282.75
2022-12-25T15:23:48.106Z,278.27
2022-12-25T15:25:51.798Z,270.85
2022-12-25T15:27:55.378Z,287.90
2022-12-25T15:30:09.861Z,268.42
2022-12-25T15:32:20.343Z,256.27
2022-12-25T15:34:23.753Z,280.05
2022-12-25T15:36:28.307Z,277.55
2022-12-25T15:38:36.545Z,267.00
2022-12-25T15:40:40.853Z,272.60
2022-12-25T15:42:45.393Z,289.52
2022-12-25T15:44:48.745Z,277.33
2022-12-25T15:46:52.533Z,288.45
2022-12-25T15:48:57.493Z,271.50
2022-12-25T15:51:00.907Z,277.88
2022-12-25T15:53:04.737Z,282.73
2022-12-25T15:55:09.042Z,293.00
2022-12-25T15:57:19.506Z,297.27
2022-12-25T15:59:23.849Z,278.45
2022-12-25T16:01:27.285Z,303.35
2022-12-25T16:03:31.006Z,281.17
2022-12-25T16:05:35.796Z,298.83
2022-12-25T16:07:39.775Z,295.15
2022-12-25T16:09:43.830Z,296.88
2022-12-25T16:11:48.240Z,282.13
2022-12-25T16:13:51.592Z,285.67
2022-12-25T16:15:54.983Z,283.75
2022-12-25T16:17:58.411Z,304.88
2022-12-25T16:20:01.735Z,292.75
2022-12-25T16:22:12.810Z,296.77
2022-12-25T16:24:16.229Z,300.50
2022-12-25T16:26:19.846Z,314.45
2022-12-25T16:28:23.248Z,308.30
2022-12-25T16:30:26.620Z,302.63
2022-12-25T16:32:30.260Z,300.10
2022-12-25T16:34:33.623Z,299.20
2022-12-25T16:36:37.751Z,305.45
2022-12-25T16:38:42.526Z,293.85
2022-12-25T16:40:46.719Z,302.00
2022-12-25T16:42:50.096Z,302.95
2022-12-25T16:44:54.207Z,298.40
2022-12-25T16:46:57.624Z,278.75
2022-12-25T16:49:01.126Z,299.70
2022-12-25T16:51:09.739Z,299.48
2022-12-25T16:53:13.343Z,291.27
2022-12-25T16:55:18.461Z,293.55
2022-12-25T16:57:21.813Z,275.38
2022-12-25T16:59:25.108Z,287.63
2022-12-25T17:01:28.734Z,284.92
2022-12-25T17:03:32.536Z,293.92
2022-12-25T17:05:36.242Z,294.38
2022-12-25T17:07:39.660Z,289.45
2022-12-25T17:09:44.760Z,293.10
2022-12-25T17:11:49.554Z,306.17
2022-12-25T17:13:52.865Z,284.27
2022-12-25T17:15:56.325Z,305.35
2022-12-25T17:17:59.715Z,321.42
2022-12-25T17:20:03.985Z,302.40
2022-12-25T17:22:07.612Z,296.15
2022-12-25T17:24:11.634Z,310.60
2022-12-25T17:26:15.058Z,300.25
2022-12-25T17:28:19.796Z,301.77
2022-12-25T17:30:23.303Z,306.73
2022-12-25T17:32:26.665Z,309.20
2022-12-25T17:34:30.232Z,305.83
2022-12-25T17:36:34.056Z,296.80
2022-12-25T17:38:38.059Z,303.40
2022-12-25T17:40:41.389Z,311.35
2022-12-25T17:42:44.761Z,299.98
2022-12-25T17:44:49.522Z,278.30
2022-12-25T17:46:53.022Z,284.17
2022-12-25T17:48:59.157Z,296.13
2022-12-25T17:51:03.107Z,299.05
2022-12-25T17:53:06.648Z,278.30
2022-12-25T17:55:10.645Z,287.35
2022-12-25T17:57:14.138Z,284.85
2022-12-25T17:59:19.130Z,282.25
2022-12-25T18:01:25.305Z,270.85
2022-12-25T18:03:28.812Z,285.80
2022-12-25T18:05:35.890Z,278.23
2022-12-25T18:07:39.523Z,291.88
2022-12-25T18:09:42.850Z,311.35
2022-12-25T18:11:46.541Z,314.35
2022-12-25T18:13:53.453Z,292.30
2022-12-25T18:15:56.951Z,299.52
2022-12-25T18:18:01.835Z,301.33
2022-12-25T18:20:05.928Z,295.83
2022-12-25T18:22:09.279Z,293.00
2022-12-25T18:24:12.759Z,308.05
2022-12-25T18:26:16.213Z,306.92
2022-12-25T18:28:19.681Z,298.30
2022-12-25T18:30:23.071Z,305.13
2022-12-25T18:32:28.318Z,292.50
2022-12-25T18:34:33.282Z,296.23
2022-12-25T18:36:36.944Z,306.98
2022-12-25T18:38:40.388Z,278.88
2022-12-25T18:40:44.811Z,305.52
2022-12-25T18:42:52.315Z,299.90
2022-12-25T18:44:58.386Z,304.77
2022-12-25T18:47:01.767Z,290.25
2022-12-25T18:49:05.313Z,293.10
2022-12-25T18:51:12.653Z,304.17
2022-12-25T18:53:17.398Z,274.65
2022-12-25T18:55:20.805Z,305.95
2022-12-25T18:57:24.262Z,286.85
2022-12-25T18:59:29.245Z,296.13
2022-12-25T19:01:32.722Z,271.40
2022-12-25T19:03:36.165Z,295.60
2022-12-25T19:05:40.342Z,324.60
2022-12-25T19:07:45.067Z,323.48
2022-12-25T19:09:48.550Z,317.00
2022-12-25T19:11:53.609Z,290.27
2022-12-25T19:13:57.634Z,284.48
2022-12-25T19:16:01.095Z,320.10
2022-12-25T19:18:04.581Z,302.33
2022-12-25T19:20:09.244Z,303.25
2022-12-25T19:22:12.941Z,296.42
2022-12-25T19:24:17.670Z,326.40
2022-12-25T19:26:21.835Z,306.05
2022-12-25T19:28:25.653Z,301.30
2022-12-25T19:30:29.112Z,312.92
2022-12-25T19:32:32.561Z,303.88
2022-12-25T19:34:36.118Z,305.67
2022-12-25T19:36:40.171Z,303.92
2022-12-25T19:38:44.438Z,311.35
2022-12-25T19:41:01.181Z,297.05
2022-12-25T19:43:04.733Z,291.13
2022-12-25T19:45:09.082Z,316.38
2022-12-25T19:47:12.574Z,320.90
2022-12-25T19:49:16.128Z,295.65
2022-12-25T19:51:22.042Z,298.05
2022-12-25T19:53:25.771Z,286.42
2022-12-25T19:55:29.146Z,297.80
2022-12-25T19:57:34.396Z,291.30
2022-12-25T19:59:37.728Z,306.25
2022-12-25T20:01:41.960Z,301.55
2022-12-25T20:03:46.627Z,297.40
2022-12-25T20:05:50.079Z,309.88
2022-12-25T20:07:53.528Z,326.83
2022-12-25T20:09:56.890Z,308.30
2022-12-25T20:12:00.296Z,334.83
2022-12-25T20:14:05.697Z,297.60
2022-12-25T20:16:10.142Z,307.33
2022-12-25T20:18:13.507Z,305.73
2022-12-25T20:20:16.979Z,302.05
2022-12-25T20:22:20.308Z,323.60
2022-12-25T20:24:24.587Z,306.77
2022-12-25T20:26:30.381Z,325.83
2022-12-25T20:28:34.891Z,300.52
2022-12-25T20:30:41.262Z,299.65
2022-12-25T20:32:50.448Z,323.20
2022-12-25T20:34:54.170Z,298.00
2022-12-25T20:36:57.737Z,311.95
2022-12-25T20:39:01.420Z,322.98
2022-12-25T20:43:30.165Z,308.52
2022-12-25T20:45:33.739Z,326.00
2022-12-25T20:47:38.887Z,311.67
2022-12-25T20:49:42.218Z,310.08
2022-12-25T20:51:45.522Z,324.15
2022-12-25T20:53:49.833Z,316.52
2022-12-25T20:55:53.178Z,281.30
2022-12-25T20:57:56.583Z,237.00
2022-12-25T20:59:59.909Z,236.82
2022-12-25T21:02:03.356Z,233.43
2022-12-25T21:04:12.916Z,240.63
2022-12-25T21:06:19.310Z,232.35
2022-12-25T21:08:26.129Z,229.95
2022-12-25T21:10:29.516Z,218.30
2022-12-25T21:12:32.910Z,222.20
2022-12-25T21:14:37.054Z,241.05
2022-12-25T21:16:40.493Z,262.25
2022-12-25T21:18:43.897Z,234.98
2022-12-25T21:20:50.815Z,220.85
2022-12-25T21:22:54.141Z,222.75
2022-12-25T21:24:57.590Z,215.20
2022-12-25T21:27:01.075Z,242.20
2022-12-25T21:29:04.804Z,213.73
2022-12-25T21:31:09.027Z,243.52
2022-12-25T21:33:45.684Z,338.67
2022-12-25T21:35:50.414Z,315.52
2022-12-25T21:37:53.811Z,325.27
2022-12-25T21:39:57.145Z,312.38
2022-12-25T21:42:00.540Z,303.77
2022-12-25T21:44:04.020Z,311.52
2022-12-25T21:46:09.420Z,306.42
2022-12-25T21:48:13.328Z,313.75
2022-12-25T21:50:39.083Z,315.75
2022-12-25T21:52:44.153Z,298.80
2022-12-25T21:54:47.468Z,307.83
2022-12-25T21:56:51.179Z,308.50
2022-12-25T21:58:54.587Z,316.15
2022-12-25T22:01:03.218Z,318.27
2022-12-25T22:03:06.692Z,304.05
2022-12-25T22:05:30.492Z,302.00
2022-12-25T22:07:33.085Z,315.83
2022-12-25T22:09:38.352Z,308.75
2022-12-25T22:11:59.634Z,325.33
2022-12-25T22:14:16.923Z,311.63
2022-12-25T22:16:38.285Z,306.80
2022-12-25T22:18:59.504Z,325.90
2022-12-25T22:21:02.938Z,317.92
2022-12-25T22:23:06.501Z,324.30
2022-12-25T22:25:12.009Z,316.13
2022-12-25T22:27:15.390Z,331.13
2022-12-25T22:29:18.717Z,322.13
2022-12-25T22:31:22.152Z,338.30
2022-12-25T22:33:27.946Z,310.92
2022-12-25T22:35:31.369Z,300.55
2022-12-25T22:37:35.865Z,320.38
2022-12-25T22:39:39.361Z,314.45
2022-12-25T22:41:44.096Z,329.80
2022-12-25T22:46:10.840Z,338.77
2022-12-25T22:48:14.358Z,321.88
2022-12-25T22:50:17.758Z,334.63
2022-12-25T22:52:21.186Z,334.52
2022-12-25T22:54:25.700Z,330.02
2022-12-25T22:56:29.117Z,325.52
2022-12-25T22:58:34.338Z,344.70
2022-12-25T23:00:44.243Z,319.98
2022-12-25T23:02:49.527Z,315.95
2022-12-25T23:04:53.050Z,326.42
2022-12-25T23:06:56.671Z,335.95
2022-12-25T23:09:00.335Z,335.08
2022-12-25T23:11:04.643Z,336.85
2022-12-25T23:13:27.869Z,337.92
2022-12-25T23:15:32.740Z,320.83
2022-12-25T23:17:53.799Z,319.38
2022-12-25T23:20:15.624Z,325.77
2022-12-25T23:22:35.913Z,315.30
2022-12-25T23:24:57.015Z,315.17
2022-12-25T23:27:00.404Z,306.35
2022-12-25T23:29:21.586Z,308.00
2022-12-25T23:31:29.295Z,328.17
2022-12-25T23:33:32.925Z,298.40
2022-12-25T23:35:36.265Z,313.90
2022-12-25T23:37:39.667Z,316.55
2022-12-25T23:39:42.996Z,335.80
2022-12-25T23:41:46.394Z,328.48
2022-12-25T23:43:49.796Z,332.40
2022-12-25T23:45:53.071Z,323.88
2022-12-25T23:47:58.139Z,327.05
2022-12-25T23:50:01.505Z,330.67
2022-12-25T23:52:05.058Z,327.02
2022-12-25T23:54:09.256Z,337.90
2022-12-25T23:56:13.294Z,333.30
2022-12-25T23:58:16.604Z,311.83
